Time;durP1;ratioP1;P1;durP2;ratioP2;P2;SDS_P1;SDS_P2;PMS_P1;PMS_P2;Temp;Humidity;BMP_temperature;BMP_pressure;BME280_temperature;BME280_humidity;BME280_pressure;Samples;Min_cycle;Max_cycle;Signal;HPM_P1;HPM_P2
2023/11/20 00:00:46;;;;;;;1.30;0.80;;;;;;;10.05;84.01;101255.56;2088960;28;20749;-72
2023/11/20 00:01:47;;;;;;;2.73;0.80;;;;;;;10.29;85.16;101290.50;2100262;28;20193;-72
2023/11/20 00:02:48;;;;;;;1.80;1.00;;;;;;;10.26;85.35;101288.56;2097131;28;20192;-72
2023/11/20 00:03:53;;;;;;;2.13;1.03;;;;;;;9.56;85.79;101178.63;2094336;28;20447;-72
2023/11/20 00:04:53;;;;;;;1.60;0.87;;;;;;;10.23;88.08;101281.09;2099933;28;20179;-72
2023/11/20 00:05:54;;;;;;;3.03;1.03;;;;;;;10.12;84.51;101290.72;2089556;28;20951;-72
2023/11/20 00:06:54;;;;;;;1.70;0.90;;;;;;;10.10;82.71;101277.28;2097214;28;20179;-72
2023/11/20 00:07:54;;;;;;;1.80;0.90;;;;;;;10.10;81.93;101276.50;2097568;28;20191;-72
2023/11/20 00:08:57;;;;;;;2.13;1.00;;;;;;;10.11;83.40;101281.63;2097165;28;20192;-72
2023/11/20 00:09:58;;;;;;;2.53;0.97;;;;;;;10.13;84.00;101281.19;2095948;28;20306;-72
2023/11/20 00:10:59;;;;;;;2.60;1.00;;;;;;;10.12;83.96;101279.63;2096310;28;20414;-72
2023/11/20 00:12:00;;;;;;;0.83;0.60;;;;;;;10.11;83.74;101284.41;2097689;28;20184;-72
2023/11/20 00:13:00;;;;;;;1.40;0.80;;;;;;;10.11;83.82;101284.41;2097242;28;20437;-72
2023/11/20 00:14:01;;;;;;;2.83;0.83;;;;;;;10.10;85.46;101291.13;2096545;28;20192;-72
2023/11/20 00:15:01;;;;;;;9.20;1.20;;;;;;;8.61;84.80;101048.06;2093047;28;20735;-72
2023/11/20 00:16:02;;;;;;;2.07;1.10;;;;;;;10.10;86.34;101276.50;2091583;28;20184;-71
2023/11/20 00:17:03;;;;;;;7.90;1.33;;;;;;;10.04;86.52;101286.47;2096910;28;20183;-72
2023/11/20 00:18:05;;;;;;;4.90;1.40;;;;;;;9.99;86.92;101281.34;2097186;28;20683;-72
2023/11/20 00:19:10;;;;;;;5.10;1.10;;;;;;;9.98;87.51;101277.00;2097409;28;20421;-72
2023/11/20 00:20:11;;;;;;;2.67;1.13;;;;;;;9.62;86.56;101231.50;2105448;28;20480;-72
2023/11/20 00:21:12;;;;;;;2.53;0.80;;;;;;;9.96;86.59;101282.16;2091792;28;20570;-72
2023/11/20 00:22:12;;;;;;;1.43;0.70;;;;;;;9.88;86.99;101277.88;2094701;28;20818;-72
2023/11/20 00:23:13;;;;;;;2.50;0.90;;;;;;;9.93;89.47;101281.00;2096937;28;20441;-72
2023/11/20 00:24:14;;;;;;;2.80;1.20;;;;;;;9.87;88.67;101296.50;2099279;28;20604;-72
2023/11/20 00:25:14;;;;;;;2.43;1.57;;;;;;;9.75;89.58;101274.09;2096627;28;20274;-72
2023/11/20 00:26:15;;;;;;;2.07;0.80;;;;;;;9.78;88.71;101282.34;2089372;28;20177;-71
2023/11/20 00:27:15;;;;;;;1.83;1.20;;;;;;;9.76;89.35;101289.50;2097260;28;20566;-71
2023/11/20 00:28:16;;;;;;;3.70;1.03;;;;;;;9.61;90.07;101263.16;2089456;28;20180;-72
2023/11/20 00:29:16;;;;;;;2.47;1.00;;;;;;;9.70;91.41;101297.47;2094714;28;20433;-71
2023/11/20 00:30:17;;;;;;;1.30;0.87;;;;;;;9.65;89.60;101291.59;2091403;28;20253;-72
2023/11/20 00:31:17;;;;;;;1.43;1.00;;;;;;;9.48;86.50;101276.72;2096939;28;20202;-72
2023/11/20 00:32:18;;;;;;;1.60;0.87;;;;;;;9.17;85.03;101227.22;2102751;28;20279;-72
2023/11/20 00:33:19;;;;;;;1.50;0.97;;;;;;;9.56;86.61;101294.03;2098294;28;20193;-72
2023/11/20 00:34:19;;;;;;;2.00;1.03;;;;;;;9.55;85.33;101293.25;2104442;28;20204;-72
2023/11/20 00:35:20;;;;;;;3.43;1.00;;;;;;;9.56;84.71;101303.13;2088653;28;20993;-72
2023/11/20 00:36:20;;;;;;;1.63;1.07;;;;;;;9.56;84.71;101305.09;2096368;28;20195;-72
2023/11/20 00:37:21;;;;;;;2.17;1.10;;;;;;;9.55;85.14;101307.09;2091014;28;20648;-72
2023/11/20 00:38:21;;;;;;;1.53;0.97;;;;;;;9.56;86.42;101305.91;2088339;28;20246;-72
2023/11/20 00:39:22;;;;;;;1.93;1.10;;;;;;;9.58;88.91;101311.03;2088438;28;20199;-72
2023/11/20 00:40:23;;;;;;;4.07;1.20;;;;;;;9.54;89.84;101305.50;2088930;28;20657;-72
2023/11/20 00:41:24;;;;;;;1.40;0.70;;;;;;;8.56;89.56;101161.75;2088912;28;20774;-72
2023/11/20 00:42:24;;;;;;;2.70;1.17;;;;;;;9.48;90.26;101306.38;2089094;28;20184;-72
2023/11/20 00:43:25;;;;;;;4.87;1.07;;;;;;;9.46;90.65;101309.53;2088490;28;20442;-72
2023/11/20 00:44:25;;;;;;;1.97;0.97;;;;;;;9.47;91.42;101315.84;2087680;28;20665;-72
2023/11/20 00:45:26;;;;;;;2.60;0.70;;;;;;;9.46;91.47;101319.81;2088593;28;20180;-72
2023/11/20 00:46:26;;;;;;;4.83;0.90;;;;;;;9.41;91.92;101317.47;2093175;28;20196;-72
2023/11/20 00:47:27;;;;;;;3.20;1.03;;;;;;;8.95;92.30;101245.16;2093870;28;20280;-72
2023/11/20 00:48:27;;;;;;;1.23;0.70;;;;;;;9.35;90.91;101310.81;2090551;28;20184;-72
2023/11/20 00:49:28;;;;;;;2.20;1.20;;;;;;;9.35;91.39;101316.34;2097010;28;20221;-72
2023/11/20 00:50:28;;;;;;;1.97;0.97;;;;;;;9.32;92.18;101303.34;2096412;28;20183;-72
2023/11/20 00:51:29;;;;;;;1.37;0.97;;;;;;;9.27;92.16;101301.00;2096527;28;20196;-72
2023/11/20 00:52:31;;;;;;;1.93;1.00;;;;;;;9.25;92.45;101301.41;2096238;28;20194;-72
2023/11/20 00:53:32;;;;;;;1.67;0.90;;;;;;;9.27;92.99;101301.00;2087988;28;20446;-72
2023/11/20 00:54:32;;;;;;;1.83;1.00;;;;;;;9.21;94.44;101289.59;2088737;28;20628;-72
2023/11/20 00:55:33;;;;;;;4.23;1.30;;;;;;;9.17;93.79;101294.34;2088381;28;20215;-72
2023/11/20 00:56:33;;;;;;;2.20;1.10;;;;;;;9.12;91.85;101282.97;2088773;28;20214;-72
2023/11/20 00:57:34;;;;;;;1.77;1.10;;;;;;;9.04;90.66;101271.16;2088405;28;20183;-72
2023/11/20 00:58:35;;;;;;;1.37;1.07;;;;;;;9.14;89.23;101284.13;2088969;28;20179;-72
2023/11/20 00:59:35;;;;;;;2.30;0.80;;;;;;;8.85;88.47;101240.47;2088904;28;20444;-72
2023/11/20 01:00:36;;;;;;;3.10;1.00;;;;;;;9.14;89.26;101280.56;2088761;28;20207;-72
2023/11/20 01:01:37;;;;;;;3.33;1.00;;;;;;;9.15;87.98;101295.94;2088710;28;20661;-72
2023/11/20 01:02:38;;;;;;;3.37;1.10;;;;;;;9.14;87.87;101275.03;2088828;28;20735;-72
2023/11/20 01:03:40;;;;;;;2.00;0.97;;;;;;;9.15;90.56;101276.59;2087786;28;20428;-72
2023/11/20 01:04:40;;;;;;;2.97;1.07;;;;;;;9.12;93.56;101280.97;2088762;28;20447;-72
2023/11/20 01:05:42;;;;;;;1.27;0.97;;;;;;;9.05;93.97;101278.25;2088353;28;20926;-72
2023/11/20 01:06:42;;;;;;;2.33;0.70;;;;;;;9.00;93.60;101267.63;2088476;28;20283;-72
2023/11/20 01:07:43;;;;;;;1.93;1.03;;;;;;;8.96;94.13;101274.38;2095969;28;20433;-72
2023/11/20 01:08:43;;;;;;;1.53;0.83;;;;;;;8.91;93.91;101272.81;2090871;28;20297;-72
2023/11/20 01:09:44;;;;;;;2.20;0.70;;;;;;;8.90;93.90;101268.50;2098411;28;20575;-72
2023/11/20 01:10:44;;;;;;;1.80;0.87;;;;;;;8.87;93.92;101279.56;2098167;28;20187;-72
2023/11/20 01:11:45;;;;;;;1.47;0.80;;;;;;;8.84;93.70;101270.13;2093490;28;20666;-72
2023/11/20 01:12:45;;;;;;;1.23;0.87;;;;;;;8.82;94.56;101278.00;2103107;28;20181;-72
2023/11/20 01:13:46;;;;;;;1.87;0.87;;;;;;;8.78;93.69;101282.78;2088052;28;20333;-72
2023/11/20 01:14:46;;;;;;;2.47;1.10;;;;;;;8.75;92.14;101286.34;2105284;28;20615;-72
2023/11/20 01:15:47;;;;;;;2.90;0.80;;;;;;;8.02;91.10;101176.25;2098065;28;20218;-72
2023/11/20 01:16:47;;;;;;;4.77;0.77;;;;;;;8.68;90.19;101288.38;2102735;28;20226;-72
2023/11/20 01:17:48;;;;;;;1.87;0.97;;;;;;;8.62;89.78;101282.47;2100801;28;20256;-72
2023/11/20 01:18:50;;;;;;;1.70;0.93;;;;;;;8.59;89.87;101291.56;2099969;28;20360;-72
2023/11/20 01:19:51;;;;;;;1.80;0.97;;;;;;;8.60;90.96;101287.63;2100422;28;20240;-72
2023/11/20 01:20:51;;;;;;;1.70;0.90;;;;;;;8.61;91.17;101288.41;2089679;28;21010;-72
2023/11/20 01:21:52;;;;;;;1.77;1.03;;;;;;;8.62;90.73;101292.75;2104764;28;20186;-72
2023/11/20 01:22:52;;;;;;;1.70;0.90;;;;;;;8.64;90.62;101290.34;2096706;28;20708;-72
2023/11/20 01:23:53;;;;;;;2.13;0.97;;;;;;;8.62;89.19;101293.53;2102841;28;20194;-72
2023/11/20 01:24:53;;;;;;;3.47;1.10;;;;;;;8.48;89.40;101274.28;2097659;28;20679;-72
2023/11/20 01:25:55;;;;;;;1.93;0.87;;;;;;;8.59;88.94;101286.06;2101143;28;20198;-72
2023/11/20 01:26:56;;;;;;;2.37;1.10;;;;;;;8.60;89.04;101290.38;2098343;28;20288;-72
2023/11/20 01:27:58;;;;;;;1.27;1.00;;;;;;;8.58;90.06;101289.22;2091605;28;20790;-72
2023/11/20 01:28:59;;;;;;;4.73;1.07;;;;;;;8.59;89.30;101285.25;2103443;28;20424;-72
2023/11/20 01:29:59;;;;;;;2.20;1.10;;;;;;;8.59;89.43;101288.81;2089043;28;20472;-72
2023/11/20 01:31:00;;;;;;;2.67;1.10;;;;;;;8.57;91.33;101280.13;2104549;28;20195;-72
2023/11/20 01:32:00;;;;;;;2.00;0.83;;;;;;;8.62;91.09;101292.75;2092140;28;20223;-72
2023/11/20 01:33:01;;;;;;;4.07;1.03;;;;;;;8.62;90.80;101287.22;2088714;28;20669;-72
2023/11/20 01:34:01;;;;;;;1.83;0.80;;;;;;;8.61;90.50;101299.47;2087686;28;20186;-72
2023/11/20 01:35:03;;;;;;;3.77;1.30;;;;;;;8.60;91.18;101292.34;2091470;28;20206;-72
2023/11/20 01:36:04;;;;;;;3.03;1.00;;;;;;;8.57;92.88;101282.13;2090065;28;20187;-72
2023/11/20 01:37:08;;;;;;;3.33;1.20;;;;;;;8.55;93.16;101282.50;2096723;28;20417;-72
2023/11/20 01:38:09;;;;;;;4.67;1.00;;;;;;;8.63;93.89;101288.78;2096912;28;20183;-72
2023/11/20 01:39:09;;;;;;;2.03;1.20;;;;;;;7.99;95.02;101191.63;2088844;28;21006;-72
2023/11/20 01:40:13;;;;;;;2.27;0.90;;;;;;;8.59;94.55;101288.81;2088720;28;20196;-72
2023/11/20 01:41:14;;;;;;;2.37;1.00;;;;;;;8.56;93.97;101284.09;2088582;28;20201;-72
2023/11/20 01:42:14;;;;;;;1.67;1.00;;;;;;;8.54;93.15;101282.91;2088696;28;20460;-72
2023/11/20 01:43:15;;;;;;;3.23;1.13;;;;;;;8.51;92.56;101281.75;2088162;28;20215;-72
2023/11/20 01:44:16;;;;;;;1.87;0.90;;;;;;;8.38;92.89;101261.31;2087943;28;20186;-72
2023/11/20 01:45:16;;;;;;;1.30;0.90;;;;;;;8.51;92.88;101278.22;2089347;28;20184;-72
2023/11/20 01:46:17;;;;;;;2.10;0.80;;;;;;;8.50;92.42;101276.63;2096379;28;20442;-72
2023/11/20 01:47:17;;;;;;;1.57;0.90;;;;;;;8.50;92.61;101276.63;2088123;28;20206;-72
2023/11/20 01:48:18;;;;;;;1.30;0.77;;;;;;;8.37;93.19;101264.47;2088500;28;20248;-72
2023/11/20 01:49:19;;;;;;;3.17;0.90;;;;;;;8.42;93.07;101281.41;2088629;28;20225;-72
2023/11/20 01:50:20;;;;;;;1.40;0.90;;;;;;;8.42;93.02;101266.81;2087995;28;20649;-72
2023/11/20 01:51:20;;;;;;;2.23;0.83;;;;;;;8.41;92.98;101273.53;2091857;28;20203;-72
2023/11/20 01:52:21;;;;;;;2.20;0.80;;;;;;;8.44;94.26;101273.50;2096868;28;20193;-72
2023/11/20 01:53:22;;;;;;;1.50;0.80;;;;;;;8.46;93.83;101273.09;2095721;28;20554;-72
2023/11/20 01:54:24;;;;;;;2.70;0.90;;;;;;;8.46;93.81;101279.41;2088240;28;20509;-72
2023/11/20 01:55:24;;;;;;;2.17;0.87;;;;;;;8.47;94.01;101277.44;2096300;28;20453;-72
2023/11/20 01:56:26;;;;;;;1.67;1.00;;;;;;;8.40;93.89;101269.19;2089986;28;20440;-72
2023/11/20 01:57:27;;;;;;;1.70;1.10;;;;;;;8.40;93.92;101266.44;2094404;28;20219;-72
2023/11/20 01:58:28;;;;;;;2.73;1.20;;;;;;;8.45;94.59;101274.31;2092059;28;20448;-72
2023/11/20 01:59:30;;;;;;;1.77;0.90;;;;;;;8.45;94.22;101275.06;2088497;28;20228;-72
2023/11/20 02:00:32;;;;;;;2.63;1.03;;;;;;;8.42;94.91;101275.09;2092305;28;20971;-72
2023/11/20 02:01:33;;;;;;;2.37;0.90;;;;;;;8.43;97.25;101277.47;2103438;28;20411;-72
2023/11/20 02:02:34;;;;;;;1.53;0.80;;;;;;;8.37;96.91;101279.06;2098383;28;20792;-72
2023/11/20 02:03:35;;;;;;;3.47;0.80;;;;;;;8.33;98.51;101270.00;2089297;28;20414;-72
2023/11/20 02:04:36;;;;;;;1.10;0.90;;;;;;;8.33;97.15;101278.28;2096803;28;20440;-72
2023/11/20 02:05:36;;;;;;;1.60;0.80;;;;;;;8.30;96.53;101278.31;2104112;28;20240;-72
2023/11/20 02:06:37;;;;;;;1.57;0.90;;;;;;;8.31;96.86;101275.13;2097156;28;20196;-72
2023/11/20 02:07:37;;;;;;;0.93;0.73;;;;;;;8.31;97.40;101291.69;2097153;28;20185;-72
2023/11/20 02:08:38;;;;;;;1.83;0.97;;;;;;;8.31;97.75;101286.16;2101133;28;20178;-72
2023/11/20 02:09:42;;;;;;;2.40;1.07;;;;;;;8.33;98.21;101285.78;2091292;28;20678;-72
2023/11/20 02:10:43;;;;;;;1.47;0.90;;;;;;;8.39;96.92;101275.88;2106395;28;20328;-72
2023/11/20 02:11:45;;;;;;;1.10;0.70;;;;;;;8.43;94.66;101274.69;2098640;28;20427;-72
2023/11/20 02:12:46;;;;;;;1.27;0.87;;;;;;;8.40;94.86;101269.19;2105888;28;21004;-72
2023/11/20 02:13:50;;;;;;;1.67;0.83;;;;;;;8.42;95.97;101264.03;2093160;28;21417;-72
2023/11/20 02:14:50;;;;;;;5.63;1.00;;;;;;;7.98;99.01;101187.31;2100945;28;20197;-72
2023/11/20 02:15:51;;;;;;;2.13;0.90;;;;;;;8.47;98.65;101269.94;2097761;28;20486;-72
2023/11/20 02:16:52;;;;;;;1.63;1.00;;;;;;;8.51;99.04;101270.69;2095954;28;20272;-72
2023/11/20 02:17:52;;;;;;;1.40;0.83;;;;;;;8.54;98.90;101267.13;2102970;28;20204;-72
2023/11/20 02:18:53;;;;;;;2.00;1.17;;;;;;;8.57;99.21;101257.25;2090457;28;20187;-72
2023/11/20 02:19:53;;;;;;;1.70;0.90;;;;;;;8.60;98.69;101260.00;2106963;28;20644;-72
2023/11/20 02:20:54;;;;;;;1.07;0.83;;;;;;;7.89;98.18;101153.81;2090981;28;20304;-72
2023/11/20 02:21:54;;;;;;;1.80;1.00;;;;;;;8.64;96.40;101263.53;2103147;28;20193;-72
2023/11/20 02:22:55;;;;;;;1.63;0.80;;;;;;;7.70;95.26;101096.38;2096195;28;20224;-72
2023/11/20 02:23:55;;;;;;;2.73;1.00;;;;;;;8.68;95.66;101244.16;2089046;28;20210;-72
2023/11/20 02:24:56;;;;;;;2.53;0.90;;;;;;;8.69;97.00;101241.00;2096021;28;20237;-72
2023/11/20 02:26:18;;;;;;;1.53;0.93;;;;;;;8.70;95.67;101239.00;2103938;28;20584;-72
2023/11/20 02:27:42;;;;;;;2.80;1.23;;;;;;;8.73;96.60;101244.53;2073740;28;20228;-72
2023/11/20 02:28:58;;;;;;;2.33;1.10;;;;;;;8.76;94.70;101237.41;2078227;28;20449;-72
2023/11/20 02:30:02;;;;;;;1.30;0.90;;;;;;;8.74;94.91;101248.88;2081789;28;20500;-72
2023/11/20 02:31:02;;;;;;;1.97;1.03;;;;;;;8.74;96.35;101253.59;2076628;28;20446;-72
2023/11/20 02:32:04;;;;;;;2.00;0.90;;;;;;;8.75;96.18;101252.41;2073429;28;20432;-72
2023/11/20 02:33:04;;;;;;;1.03;0.80;;;;;;;8.75;96.51;101257.91;2075457;28;20190;-72
2023/11/20 02:34:05;;;;;;;2.60;1.17;;;;;;;8.76;96.51;101262.28;2080615;28;20431;-72
2023/11/20 02:35:05;;;;;;;1.10;0.70;;;;;;;8.80;97.74;101263.81;2080909;28;20205;-72
2023/11/20 02:36:06;;;;;;;2.47;0.80;;;;;;;8.77;97.38;101266.63;2073625;28;20651;-72
2023/11/20 02:37:08;;;;;;;2.13;0.93;;;;;;;8.83;98.41;101265.78;2073413;28;20251;-72
2023/11/20 02:38:08;;;;;;;2.20;0.90;;;;;;;8.80;97.39;101251.97;2073441;28;20185;-72
2023/11/20 02:39:09;;;;;;;1.40;0.73;;;;;;;9.05;94.34;101255.34;2078046;28;20454;-72
2023/11/20 02:40:10;;;;;;;2.87;0.93;;;;;;;9.05;94.06;101264.44;2081576;28;20280;-72
2023/11/20 02:41:11;;;;;;;1.67;0.93;;;;;;;9.09;94.72;101267.16;2081422;28;20466;-72
2023/11/20 02:42:11;;;;;;;1.47;0.80;;;;;;;9.20;92.03;101278.94;2080320;28;20429;-72
2023/11/20 02:43:12;;;;;;;3.07;1.10;;;;;;;9.24;95.17;101274.97;2072232;28;20629;-72
2023/11/20 02:44:12;;;;;;;1.30;0.80;;;;;;;9.38;91.51;101269.28;2080477;28;20241;-72
2023/11/20 02:45:13;;;;;;;4.17;1.00;;;;;;;9.06;92.97;101220.97;2081358;28;20388;-72
2023/11/20 02:46:14;;;;;;;1.70;0.80;;;;;;;9.39;91.99;101279.16;2075774;28;20193;-72
2023/11/20 02:47:14;;;;;;;2.63;1.00;;;;;;;9.35;91.63;101291.44;2072967;28;20579;-72
2023/11/20 02:48:15;;;;;;;4.33;0.97;;;;;;;9.40;94.98;101280.75;2076748;28;20284;-72
2023/11/20 02:49:15;;;;;;;2.00;1.10;;;;;;;9.43;96.17;101290.97;2079126;28;20227;-72
2023/11/20 02:50:16;;;;;;;4.40;1.07;;;;;;;9.39;96.19;101287.44;2073344;28;20185;-72
2023/11/20 02:51:16;;;;;;;2.00;1.17;;;;;;;9.31;95.13;101296.22;2073562;28;20181;-72
2023/11/20 02:52:17;;;;;;;3.57;1.57;;;;;;;9.32;95.51;101295.06;2081161;28;20194;-72
2023/11/20 02:53:17;;;;;;;4.70;1.13;;;;;;;9.11;99.28;101265.56;2081169;28;20688;-72
2023/11/20 02:54:18;;;;;;;6.83;1.67;;;;;;;9.32;96.38;101293.06;2075672;28;20193;-72
2023/11/20 02:55:18;;;;;;;2.70;1.30;;;;;;;9.31;94.17;101299.78;2072914;28;20194;-72
2023/11/20 02:56:18;;;;;;;2.10;1.10;;;;;;;9.24;93.06;101302.63;2075867;28;20232;-72
2023/11/20 02:57:19;;;;;;;5.10;1.30;;;;;;;9.17;93.79;101307.41;2079900;28;20189;-72
2023/11/20 02:58:19;;;;;;;7.33;1.30;;;;;;;9.10;93.94;101294.41;2073334;28;20705;-72
2023/11/20 02:59:20;;;;;;;3.60;1.03;;;;;;;8.58;94.14;101218.19;2081535;28;20188;-72
2023/11/20 03:00:20;;;;;;;1.93;1.20;;;;;;;9.06;94.24;101310.25;2076095;28;20205;-72
2023/11/20 03:01:22;;;;;;;3.93;1.20;;;;;;;8.88;93.30;101272.84;2075040;28;20215;-72
2023/11/20 03:02:23;;;;;;;6.03;1.60;;;;;;;9.11;93.07;101306.25;2072946;28;20280;-72
2023/11/20 03:03:23;;;;;;;4.63;1.73;;;;;;;9.13;92.96;101307.41;2072855;28;20443;-72
2023/11/20 03:04:24;;;;;;;3.70;1.37;;;;;;;9.11;92.17;101293.22;2072513;28;20564;-72
2023/11/20 03:05:24;;;;;;;3.40;1.30;;;;;;;9.13;91.73;101293.59;2075880;28;20208;-72
2023/11/20 03:06:25;;;;;;;2.93;1.27;;;;;;;9.19;90.58;101299.47;2073444;28;20282;-72
2023/11/20 03:07:26;;;;;;;2.30;1.47;;;;;;;9.03;90.19;101286.16;2081403;28;20199;-72
2023/11/20 03:08:26;;;;;;;3.47;1.70;;;;;;;9.12;90.58;101303.09;2081249;28;20435;-72
2023/11/20 03:09:27;;;;;;;2.80;1.60;;;;;;;9.10;90.82;101305.47;2075570;28;20583;-72
2023/11/20 03:10:27;;;;;;;6.30;1.70;;;;;;;9.06;90.81;101301.16;2073123;28;20188;-72
2023/11/20 03:11:28;;;;;;;5.37;1.57;;;;;;;9.07;91.25;101300.75;2080818;28;20389;-72
2023/11/20 03:12:29;;;;;;;3.73;1.43;;;;;;;9.12;91.33;101305.06;2081384;28;20659;-72
2023/11/20 03:13:29;;;;;;;4.27;1.47;;;;;;;8.49;91.04;101206.78;2079426;28;20181;-72
2023/11/20 03:14:29;;;;;;;2.30;1.47;;;;;;;9.09;91.04;101297.59;2081351;28;20193;-72
2023/11/20 03:15:30;;;;;;;2.90;1.40;;;;;;;9.05;90.79;101305.09;2073255;28;20203;-72
2023/11/20 03:16:31;;;;;;;1.63;1.20;;;;;;;9.08;90.80;101309.84;2079015;28;20208;-72
2023/11/20 03:17:32;;;;;;;5.67;1.77;;;;;;;9.10;91.44;101307.44;2081145;28;20200;-72
2023/11/20 03:18:33;;;;;;;2.53;1.43;;;;;;;9.05;91.47;101305.91;2077343;28;20451;-72
2023/11/20 03:19:33;;;;;;;2.17;1.33;;;;;;;9.14;91.14;101302.69;2072739;28;20204;-72
2023/11/20 03:20:34;;;;;;;2.57;1.00;;;;;;;9.11;91.27;101295.97;2074480;28;20423;-72
2023/11/20 03:21:36;;;;;;;2.80;1.00;;;;;;;9.08;91.40;101291.25;2081402;28;20576;-72
2023/11/20 03:22:37;;;;;;;3.27;1.00;;;;;;;8.23;91.99;101157.63;2081425;28;20173;-72
2023/11/20 03:23:37;;;;;;;2.07;1.03;;;;;;;9.10;95.06;101283.34;2072877;28;20918;-72
2023/11/20 03:24:38;;;;;;;5.67;1.40;;;;;;;9.11;95.64;101292.41;2074388;28;20804;-72
2023/11/20 03:25:39;;;;;;;3.07;1.20;;;;;;;9.08;95.43;101290.47;2080786;28;20231;-72
2023/11/20 03:26:39;;;;;;;4.87;1.23;;;;;;;9.14;96.41;101300.72;2090875;28;20321;-72
2023/11/20 03:27:40;;;;;;;4.17;1.40;;;;;;;9.15;96.67;101288.44;2095175;28;20174;-72
2023/11/20 03:28:41;;;;;;;2.70;1.20;;;;;;;9.19;97.47;101283.69;2090908;28;20547;-72
2023/11/20 03:29:43;;;;;;;2.07;1.17;;;;;;;9.21;97.01;101284.06;2097490;28;20425;-72
2023/11/20 03:30:43;;;;;;;2.33;1.20;;;;;;;9.23;96.83;101289.97;2097414;28;20262;-72
2023/11/20 03:31:44;;;;;;;5.50;1.10;;;;;;;9.25;98.11;101279.28;2090472;28;20441;-72
2023/11/20 03:32:45;;;;;;;5.10;1.30;;;;;;;9.27;98.68;101282.41;2095445;28;20186;-72
2023/11/20 03:33:46;;;;;;;2.33;1.23;;;;;;;9.29;98.40;101276.50;2091894;28;20455;-72
2023/11/20 03:34:47;;;;;;;3.77;1.30;;;;;;;9.30;97.97;101273.31;2089459;28;20625;-72
2023/11/20 03:35:47;;;;;;;2.77;1.20;;;;;;;9.26;96.96;101257.94;2088999;28;20406;-72
2023/11/20 03:36:47;;;;;;;2.17;1.17;;;;;;;9.28;96.57;101272.94;2090500;28;20221;-72
2023/11/20 03:37:48;;;;;;;3.13;1.43;;;;;;;9.29;95.44;101270.97;2097555;28;20575;-72
2023/11/20 03:38:48;;;;;;;6.77;1.70;;;;;;;9.27;96.84;101263.06;2089380;28;20190;-72
2023/11/20 03:39:49;;;;;;;3.87;1.40;;;;;;;9.33;96.71;101268.97;2089415;28;20201;-72
2023/11/20 03:40:49;;;;;;;4.10;1.67;;;;;;;9.29;96.57;101262.66;2089064;28;20218;-72
2023/11/20 03:41:50;;;;;;;5.27;1.37;;;;;;;9.27;95.54;101270.59;2094138;28;20425;-72
2023/11/20 03:42:50;;;;;;;3.27;1.50;;;;;;;9.24;95.00;101274.97;2100598;28;20193;-72
2023/11/20 03:43:50;;;;;;;3.53;1.83;;;;;;;9.24;95.24;101271.41;2094532;28;20183;-72
2023/11/20 03:44:52;;;;;;;3.93;1.67;;;;;;;8.56;95.17;101172.81;2089850;28;20185;-72
2023/11/20 03:45:52;;;;;;;6.27;1.90;;;;;;;9.24;95.30;101277.72;2106128;28;20181;-72
2023/11/20 03:46:53;;;;;;;3.07;1.57;;;;;;;9.23;95.59;101267.06;2090023;28;20426;-72
2023/11/20 03:47:53;;;;;;;3.27;1.50;;;;;;;8.76;96.14;101201.47;2096057;28;20710;-72
2023/11/20 03:48:54;;;;;;;4.73;1.40;;;;;;;9.22;98.71;101277.31;2097360;28;20195;-72
2023/11/20 03:49:54;;;;;;;3.37;1.77;;;;;;;9.13;98.91;101268.69;2093654;28;20196;-72
2023/11/20 03:50:55;;;;;;;7.30;1.57;;;;;;;9.15;98.63;101271.06;2091718;28;20253;-72
2023/11/20 03:51:55;;;;;;;6.23;2.30;;;;;;;9.09;97.89;101267.97;2096062;28;20606;-72
2023/11/20 03:52:56;;;;;;;3.53;1.40;;;;;;;9.09;98.17;101267.97;2089409;28;20184;-72
2023/11/20 03:53:56;;;;;;;5.00;1.37;;;;;;;9.07;98.61;101264.03;2096891;28;20190;-72
2023/11/20 03:54:57;;;;;;;4.23;1.73;;;;;;;9.06;98.95;101254.16;2089900;28;20218;-72
2023/11/20 03:55:58;;;;;;;5.33;1.70;;;;;;;9.04;97.94;101253.78;2095364;28;20191;-72
2023/11/20 03:56:58;;;;;;;5.37;1.90;;;;;;;8.68;98.24;101200.75;2092516;28;20457;-72
2023/11/20 03:57:59;;;;;;;4.73;1.70;;;;;;;8.98;99.21;101245.13;2092722;28;20188;-72
2023/11/20 03:58:59;;;;;;;3.97;1.87;;;;;;;8.95;99.54;101242.38;2094445;28;20207;-72
2023/11/20 04:00:00;;;;;;;5.43;1.70;;;;;;;8.92;99.32;101249.50;2089107;28;20180;-71
2023/11/20 04:01:02;;;;;;;8.67;1.43;;;;;;;8.85;99.89;101238.50;2095853;28;20234;-72
2023/11/20 04:02:02;;;;;;;10.60;2.10;;;;;;;8.53;100.00;101209.53;2097526;28;20202;-72
2023/11/20 04:03:03;;;;;;;10.30;1.83;;;;;;;8.75;100.00;101236.59;2090536;28;20450;-72
2023/11/20 04:04:05;;;;;;;3.90;1.30;;;;;;;8.73;100.00;101236.25;2099640;28;20197;-72
2023/11/20 04:05:05;;;;;;;2.70;1.50;;;;;;;8.72;100.00;101237.41;2096156;28;20289;-72
2023/11/20 04:06:06;;;;;;;4.73;1.70;;;;;;;8.70;100.00;101236.25;2092672;28;20437;-72
2023/11/20 04:07:07;;;;;;;2.57;1.47;;;;;;;8.69;100.00;101232.72;2096632;28;20187;-72
2023/11/20 04:08:07;;;;;;;7.17;1.70;;;;;;;8.60;100.00;101226.84;2095909;28;20213;-72
2023/11/20 04:09:08;;;;;;;6.37;1.87;;;;;;;8.58;100.00;101245.81;2089274;28;20626;-72
2023/11/20 04:10:11;;;;;;;7.70;1.97;;;;;;;8.52;100.00;101238.34;2088943;28;20234;-72
2023/11/20 04:11:11;;;;;;;6.37;1.60;;;;;;;7.77;100.00;101134.16;2088989;28;20268;-72
2023/11/20 04:12:12;;;;;;;3.73;1.60;;;;;;;8.41;100.00;101238.38;2094915;28;20949;-72
2023/11/20 04:13:12;;;;;;;6.47;1.80;;;;;;;8.35;100.00;101236.47;2092052;28;20655;-72
2023/11/20 04:14:13;;;;;;;2.43;1.40;;;;;;;8.30;100.00;101231.38;2087717;28;20277;-72
2023/11/20 04:15:13;;;;;;;3.70;1.87;;;;;;;8.26;100.00;101225.84;2088209;28;20187;-72
2023/11/20 04:16:14;;;;;;;8.07;1.80;;;;;;;8.20;100.00;101229.44;2088650;28;20180;-72
2023/11/20 04:17:14;;;;;;;3.67;1.30;;;;;;;8.11;100.00;101224.28;2096815;28;20754;-72
2023/11/20 04:18:15;;;;;;;8.47;1.93;;;;;;;7.47;100.00;101131.94;2096496;28;20215;-72
2023/11/20 04:19:16;;;;;;;5.37;1.63;;;;;;;8.03;100.00;101220.00;2089959;28;20190;-72
2023/11/20 04:20:16;;;;;;;9.83;1.63;;;;;;;8.00;100.00;101215.28;2088131;28;20487;-72
2023/11/20 04:21:17;;;;;;;2.97;1.07;;;;;;;7.53;100.00;101141.34;2091890;28;20214;-72
2023/11/20 04:22:17;;;;;;;3.80;1.47;;;;;;;7.92;100.00;101215.72;2096344;28;20351;-72
2023/11/20 04:23:18;;;;;;;2.70;1.27;;;;;;;7.93;100.00;101211.75;2094759;28;20615;-72
2023/11/20 04:24:18;;;;;;;5.63;1.67;;;;;;;7.90;100.00;101198.78;2087433;28;20183;-72
2023/11/20 04:25:19;;;;;;;3.23;1.43;;;;;;;7.72;100.00;101178.72;2094976;28;20268;-72
2023/11/20 04:26:19;;;;;;;2.63;1.30;;;;;;;7.48;100.00;101158.31;2096351;28;20198;-72
2023/11/20 04:27:20;;;;;;;4.23;1.37;;;;;;;7.74;100.00;101203.97;2089974;28;20525;-72
2023/11/20 04:28:20;;;;;;;3.87;1.63;;;;;;;7.60;100.00;101212.28;2088280;28;20199;-72
2023/11/20 04:29:21;;;;;;;2.57;1.30;;;;;;;6.78;100.00;101103.34;2088170;28;20189;-72
2023/11/20 04:30:22;;;;;;;1.40;0.90;;;;;;;7.40;100.00;101228.47;2088187;28;20223;-72
2023/11/20 04:31:22;;;;;;;1.80;1.10;;;;;;;7.31;100.00;101211.53;2087882;28;20574;-72
2023/11/20 04:32:23;;;;;;;2.13;1.30;;;;;;;7.35;100.00;101215.09;2088283;28;20261;-72
2023/11/20 04:33:25;;;;;;;4.77;1.40;;;;;;;7.31;100.00;101219.81;2087948;28;20195;-72
2023/11/20 04:34:25;;;;;;;2.38;1.35;;;;;;;7.26;100.00;101214.69;2088557;28;20245;-72
2023/11/20 04:35:26;;;;;;;2.20;1.07;;;;;;;7.26;100.00;101219.41;2096167;28;20231;-72
2023/11/20 04:36:26;;;;;;;2.33;1.33;;;;;;;7.22;100.00;101222.19;2092017;28;20191;-72
2023/11/20 04:37:26;;;;;;;4.07;1.20;;;;;;;6.97;100.00;101180.06;2090486;28;20251;-72
2023/11/20 04:38:30;;;;;;;1.87;1.20;;;;;;;7.21;100.00;101220.59;2095708;28;20212;-72
2023/11/20 04:39:30;;;;;;;1.88;1.05;;;;;;;7.21;100.00;101222.56;2090015;28;20177;-72
2023/11/20 04:40:31;;;;;;;7.33;1.40;;;;;;;6.82;100.00;101164.72;2105234;28;20206;-72
2023/11/20 04:41:31;;;;;;;8.07;1.70;;;;;;;7.13;100.00;101223.75;2088771;28;20218;-72
2023/11/20 04:42:32;;;;;;;2.33;1.10;;;;;;;7.09;100.00;101228.47;2095923;28;20642;-72
2023/11/20 04:43:32;;;;;;;2.07;0.97;;;;;;;7.08;100.00;101218.66;2096403;28;20192;-72
2023/11/20 04:44:32;;;;;;;2.50;1.20;;;;;;;7.08;100.00;101224.16;2092737;28;20232;-72
2023/11/20 04:45:33;;;;;;;1.97;1.13;;;;;;;7.11;100.00;101224.16;2094434;28;20198;-72
2023/11/20 04:46:34;;;;;;;1.47;1.10;;;;;;;7.11;100.00;101218.63;2101986;28;20206;-72